createdAt,value
2023-05-29T00:02:36.989Z,100.00
2023-05-29T00:05:22.039Z,100.00
2023-05-29T00:08:07.088Z,100.00
2023-05-29T00:10:52.308Z,100.00
2023-05-29T00:13:37.123Z,100.00
2023-05-29T00:16:24.147Z,100.00
2023-05-29T00:19:09.445Z,100.00
2023-05-29T00:21:54.014Z,100.00
2023-05-29T00:24:39.051Z,100.00
2023-05-29T00:27:23.511Z,100.00
2023-05-29T00:30:08.746Z,100.00
2023-05-29T00:32:54.518Z,100.00
2023-05-29T00:35:39.155Z,100.00
2023-05-29T00:38:23.831Z,100.00
2023-05-29T00:41:14.967Z,100.00
2023-05-29T00:43:59.673Z,100.00
2023-05-29T00:46:44.479Z,100.00
2023-05-29T00:49:29.268Z,100.00
2023-05-29T00:52:14.326Z,100.00
2023-05-29T00:55:01.634Z,100.00
2023-05-29T00:57:48.119Z,100.00
2023-05-29T01:00:35.468Z,100.00
2023-05-29T01:03:20.885Z,100.00
2023-05-29T01:06:05.848Z,100.00
2023-05-29T01:08:50.817Z,100.00
2023-05-29T01:11:58.501Z,100.00
2023-05-29T01:15:08.372Z,100.00
2023-05-29T01:18:08.896Z,100.00
2023-05-29T01:21:09.853Z,100.00
2023-05-29T01:24:10.017Z,100.00
2023-05-29T01:27:04.121Z,100.00
2023-05-29T01:29:52.291Z,100.00
2023-05-29T01:32:39.753Z,100.00
2023-05-29T01:35:26.373Z,100.00
2023-05-29T01:38:13.180Z,100.00
2023-05-29T01:40:58.941Z,100.00
2023-05-29T01:43:47.678Z,100.00
2023-05-29T01:46:32.539Z,100.00
2023-05-29T01:49:19.267Z,100.00
2023-05-29T01:52:04.742Z,100.00
2023-05-29T01:54:49.671Z,100.00
2023-05-29T01:57:36.425Z,100.00
2023-05-29T02:00:46.684Z,100.00
2023-05-29T02:03:32.086Z,100.00
2023-05-29T02:06:17.537Z,100.00
2023-05-29T02:09:03.468Z,100.00
2023-05-29T02:11:48.274Z,100.00
2023-05-29T02:14:33.151Z,100.00
2023-05-29T02:17:19.588Z,100.00
2023-05-29T02:20:06.011Z,100.00
2023-05-29T02:22:50.826Z,100.00
2023-05-29T02:25:36.539Z,100.00
2023-05-29T02:28:21.196Z,100.00
2023-05-29T02:31:06.357Z,100.00
2023-05-29T02:33:51.373Z,100.00
2023-05-29T02:36:37.692Z,100.00
2023-05-29T02:39:22.243Z,100.00
2023-05-29T02:42:06.989Z,100.00
2023-05-29T02:44:55.012Z,100.00
2023-05-29T02:47:40.091Z,100.00
2023-05-29T02:50:25.184Z,100.00
2023-05-29T02:53:10.243Z,100.00
2023-05-29T02:55:55.175Z,100.00
2023-05-29T02:58:41.098Z,100.00
2023-05-29T03:01:26.307Z,100.00
2023-05-29T03:04:13.366Z,100.00
2023-05-29T03:06:58.387Z,100.00
2023-05-29T03:09:43.295Z,100.00
2023-05-29T03:12:28.728Z,100.00
2023-05-29T03:15:14.862Z,100.00
2023-05-29T03:18:00.004Z,100.00
2023-05-29T03:20:48.566Z,100.00
2023-05-29T03:23:33.832Z,100.00
2023-05-29T03:26:18.456Z,95.58
2023-05-29T03:29:03.875Z,93.30
2023-05-29T03:31:50.147Z,92.82
2023-05-29T03:34:40.903Z,89.89
2023-05-29T03:37:25.747Z,87.45
2023-05-29T03:40:11.875Z,84.34
2023-05-29T03:42:57.293Z,80.87
2023-05-29T03:45:42.866Z,76.00
2023-05-29T03:48:27.811Z,75.21
2023-05-29T03:51:12.865Z,72.83
2023-05-29T03:53:58.100Z,71.88
2023-05-29T03:56:43.638Z,70.01
2023-05-29T03:59:30.865Z,70.01
2023-05-29T04:02:19.364Z,67.71
2023-05-29T04:05:06.854Z,65.04
2023-05-29T04:07:58.387Z,62.08
2023-05-29T04:10:49.325Z,60.69
2023-05-29T04:13:34.392Z,59.68
2023-05-29T04:16:19.359Z,58.59
2023-05-29T04:19:04.476Z,58.08
2023-05-29T04:21:50.891Z,56.73
2023-05-29T04:24:36.226Z,56.14
2023-05-29T04:27:20.972Z,55.20
2023-05-29T04:30:07.555Z,54.47
2023-05-29T04:32:56.379Z,54.39
2023-05-29T04:35:45.689Z,54.67
2023-05-29T04:38:30.699Z,54.68
2023-05-29T04:41:16.306Z,53.67
2023-05-29T04:44:01.801Z,53.95
2023-05-29T04:46:53.838Z,53.10
2023-05-29T04:49:40.981Z,53.08
2023-05-29T04:52:25.704Z,52.83
2023-05-29T04:55:11.212Z,51.94
2023-05-29T04:57:57.440Z,52.35
2023-05-29T05:00:46.575Z,52.08
2023-05-29T05:08:13.599Z,51.81
2023-05-29T05:10:59.268Z,50.21
2023-05-29T05:13:53.786Z,49.65
2023-05-29T05:16:40.077Z,49.72
2023-05-29T05:22:32.837Z,48.85
2023-05-29T05:25:26.780Z,48.34
2023-05-29T05:43:09.407Z,46.17
2023-05-29T05:46:18.251Z,47.31
2023-05-29T05:49:06.632Z,46.97
2023-05-29T05:51:51.710Z,47.13
2023-05-29T05:54:36.735Z,46.24
2023-05-29T05:57:21.890Z,45.88
2023-05-29T06:00:16.261Z,45.27
2023-05-29T06:03:13.592Z,46.34
2023-05-29T06:06:13.392Z,45.67
2023-05-29T06:09:05.031Z,45.35
2023-05-29T06:11:50.437Z,45.03
2023-05-29T06:14:38.053Z,45.13
2023-05-29T06:17:38.638Z,45.01
2023-05-29T06:20:24.905Z,46.04
2023-05-29T06:23:11.778Z,45.46
2023-05-29T06:25:57.613Z,43.83
2023-05-29T06:29:02.211Z,43.25
2023-05-29T06:31:55.363Z,43.75
2023-05-29T06:34:43.365Z,42.30
2023-05-29T06:37:28.080Z,41.67
2023-05-29T06:40:14.570Z,41.15
2023-05-29T06:42:59.485Z,40.96
2023-05-29T06:45:58.913Z,40.73
2023-05-29T06:48:44.486Z,39.92
2023-05-29T06:51:31.133Z,38.63
2023-05-29T06:54:43.893Z,38.75
2023-05-29T06:57:35.870Z,38.74
2023-05-29T07:00:31.379Z,39.28
2023-05-29T07:03:43.129Z,39.35
2023-05-29T07:06:34.128Z,38.19
2023-05-29T07:09:26.025Z,36.42
2023-05-29T07:12:14.798Z,35.43
2023-05-29T07:15:00.541Z,36.06
2023-05-29T07:17:47.111Z,36.15
2023-05-29T07:20:40.442Z,35.86
2023-05-29T07:23:28.380Z,34.45
2023-05-29T07:26:17.449Z,34.89
2023-05-29T07:29:05.072Z,34.09
2023-05-29T07:31:56.080Z,33.36
2023-05-29T07:34:43.723Z,34.35
2023-05-29T07:37:30.746Z,32.69
2023-05-29T07:40:16.046Z,32.77
2023-05-29T07:43:20.031Z,31.74
2023-05-29T07:46:34.982Z,31.36
2023-05-29T07:49:42.209Z,30.69
2023-05-29T07:52:27.862Z,30.95
2023-05-29T07:55:14.992Z,31.35
2023-05-29T07:58:00.329Z,32.44
2023-05-29T08:00:49.335Z,32.78
2023-05-29T08:03:34.930Z,32.13
2023-05-29T08:07:02.519Z,31.42
2023-05-29T08:09:48.903Z,31.43
2023-05-29T08:12:44.583Z,31.54
2023-05-29T08:15:36.385Z,31.14
2023-05-29T08:18:21.339Z,31.65
2023-05-29T08:21:06.243Z,31.67
2023-05-29T08:23:51.208Z,30.83
2023-05-29T08:26:42.976Z,30.64
2023-05-29T08:29:27.795Z,29.87
2023-05-29T08:32:13.019Z,30.89
2023-05-29T08:35:07.272Z,32.37
2023-05-29T08:37:52.182Z,31.67
2023-05-29T08:40:37.585Z,30.73
2023-05-29T08:43:23.124Z,30.78
2023-05-29T08:46:08.215Z,30.71
2023-05-29T08:48:55.366Z,30.03
2023-05-29T08:51:44.866Z,29.73
2023-05-29T08:54:32.717Z,30.81
2023-05-29T08:57:18.104Z,28.80
2023-05-29T09:00:10.006Z,30.52
2023-05-29T09:02:55.692Z,29.94
2023-05-29T09:05:41.708Z,29.22
2023-05-29T09:08:28.837Z,30.05
2023-05-29T09:11:13.815Z,29.56
2023-05-29T09:14:00.223Z,29.79
2023-05-29T09:16:45.174Z,27.28
2023-05-29T09:19:30.557Z,28.69
2023-05-29T09:22:15.655Z,28.74
2023-05-29T09:25:01.463Z,30.60
2023-05-29T09:27:46.268Z,29.03
2023-05-29T09:30:52.537Z,29.03
2023-05-29T09:33:48.246Z,27.94
2023-05-29T09:36:34.798Z,27.26
2023-05-29T09:39:20.148Z,27.30
2023-05-29T09:42:09.397Z,28.62
2023-05-29T09:45:01.969Z,28.87
2023-05-29T09:48:02.113Z,28.69
2023-05-29T09:50:52.615Z,28.88
2023-05-29T09:53:58.841Z,28.99
2023-05-29T09:56:44.514Z,28.50
2023-05-29T09:59:30.412Z,28.39
2023-05-29T10:02:15.961Z,27.08
2023-05-29T10:05:00.627Z,26.08
2023-05-29T10:07:49.717Z,27.15
2023-05-29T10:10:37.916Z,26.05
2023-05-29T10:13:25.344Z,25.04
2023-05-29T10:16:15.302Z,23.91
2023-05-29T10:19:13.292Z,24.68
2023-05-29T10:22:00.748Z,24.88
2023-05-29T10:25:17.767Z,25.01
2023-05-29T10:28:11.090Z,25.47
2023-05-29T10:31:09.048Z,25.72
2023-05-29T10:34:33.784Z,25.40
2023-05-29T10:37:31.820Z,24.95
2023-05-29T10:40:23.836Z,25.11
2023-05-29T10:43:11.377Z,24.90
2023-05-29T10:45:55.995Z,24.76
2023-05-29T10:48:42.215Z,24.35
2023-05-29T10:51:29.474Z,24.97
2023-05-29T10:54:19.369Z,25.35
2023-05-29T10:57:04.093Z,24.53
2023-05-29T10:59:57.772Z,23.85
2023-05-29T11:02:43.112Z,23.99
2023-05-29T11:05:28.052Z,23.40
2023-05-29T11:08:15.701Z,23.72
2023-05-29T11:11:55.356Z,23.02
2023-05-29T11:14:57.881Z,23.76
2023-05-29T11:17:46.324Z,24.21
2023-05-29T11:20:44.450Z,23.83
2023-05-29T11:23:32.134Z,23.99
2023-05-29T11:26:18.173Z,23.04
2023-05-29T11:29:07.580Z,23.23
2023-05-29T11:32:00.186Z,22.52
2023-05-29T11:34:50.129Z,22.74
2023-05-29T11:37:36.694Z,22.25
2023-05-29T11:40:21.348Z,21.56
2023-05-29T11:43:06.210Z,21.54
2023-05-29T11:45:51.327Z,21.34
2023-05-29T11:48:46.101Z,21.66
2023-05-29T11:51:33.599Z,21.27
2023-05-29T11:54:20.449Z,21.94
2023-05-29T11:57:12.457Z,22.04
2023-05-29T11:59:59.619Z,21.73
2023-05-29T12:02:54.139Z,22.67
2023-05-29T12:05:49.694Z,23.08
2023-05-29T12:08:36.365Z,22.17
2023-05-29T12:11:24.123Z,23.04
2023-05-29T12:14:08.899Z,21.14
2023-05-29T12:16:53.816Z,21.78
2023-05-29T12:19:38.653Z,21.15
2023-05-29T12:22:38.402Z,20.63
2023-05-29T12:25:23.701Z,20.67
2023-05-29T12:28:08.634Z,20.96
2023-05-29T12:30:59.864Z,21.74
2023-05-29T12:33:45.018Z,21.23
2023-05-29T12:36:30.953Z,20.78
2023-05-29T12:39:16.200Z,20.24
2023-05-29T12:42:01.087Z,22.16
2023-05-29T12:44:46.214Z,21.26
2023-05-29T12:47:33.529Z,22.16
2023-05-29T12:50:24.395Z,21.49
2023-05-29T12:53:13.121Z,20.46
2023-05-29T12:55:58.260Z,20.34
2023-05-29T12:58:45.810Z,21.11
2023-05-29T13:01:30.678Z,21.16
2023-05-29T13:04:16.423Z,20.43
2023-05-29T13:07:01.236Z,20.47
2023-05-29T13:09:47.411Z,20.61
2023-05-29T13:12:32.292Z,20.20
2023-05-29T13:15:17.441Z,20.73
2023-05-29T13:18:02.486Z,20.90
2023-05-29T13:20:47.848Z,20.78
2023-05-29T13:23:33.127Z,20.34
2023-05-29T13:26:18.090Z,20.87
2023-05-29T13:29:03.159Z,20.40
2023-05-29T13:31:47.649Z,20.15
2023-05-29T13:34:32.970Z,19.79
2023-05-29T13:37:17.512Z,20.33
2023-05-29T13:40:02.991Z,20.61
2023-05-29T13:42:47.981Z,20.10
2023-05-29T13:45:32.724Z,20.13
2023-05-29T13:48:17.622Z,19.77
2023-05-29T13:51:02.213Z,20.07
2023-05-29T13:53:47.492Z,19.24
2023-05-29T13:56:32.423Z,18.97
2023-05-29T13:59:17.078Z,19.89
2023-05-29T14:02:03.213Z,19.79
2023-05-29T14:04:47.983Z,19.84
2023-05-29T14:07:33.133Z,20.71
2023-05-29T14:10:18.032Z,20.57
2023-05-29T14:13:02.753Z,20.62
2023-05-29T14:15:49.605Z,19.73
2023-05-29T14:18:34.737Z,20.33
2023-05-29T14:21:21.298Z,19.61
2023-05-29T14:24:07.595Z,20.15
2023-05-29T14:26:52.286Z,20.59
2023-05-29T14:29:37.063Z,20.19
2023-05-29T14:32:22.166Z,20.09
2023-05-29T14:35:07.354Z,20.03
2023-05-29T14:37:52.152Z,19.64
2023-05-29T14:40:37.696Z,19.80
2023-05-29T14:43:22.224Z,20.13
2023-05-29T14:46:07.144Z,20.35
2023-05-29T14:48:52.961Z,20.93
2023-05-29T14:51:39.284Z,21.26
2023-05-29T14:54:24.632Z,20.80
2023-05-29T14:57:09.475Z,20.88
2023-05-29T14:59:54.152Z,21.41
2023-05-29T15:02:40.147Z,21.37
2023-05-29T15:05:28.846Z,21.87
2023-05-29T15:08:13.954Z,21.18
2023-05-29T15:10:58.920Z,21.17
2023-05-29T15:13:43.503Z,21.62
2023-05-29T15:16:28.394Z,21.43
2023-05-29T15:19:13.385Z,20.64
2023-05-29T15:21:58.476Z,20.45
2023-05-29T15:24:43.068Z,21.43
2023-05-29T15:27:31.296Z,20.42
2023-05-29T15:30:19.282Z,20.82
2023-05-29T15:33:08.248Z,21.43
2023-05-29T15:35:52.718Z,22.06
2023-05-29T15:38:37.927Z,21.93
2023-05-29T15:41:29.010Z,22.06
2023-05-29T15:44:13.869Z,21.84
2023-05-29T15:46:58.607Z,21.83
2023-05-29T15:49:43.203Z,21.09
2023-05-29T15:52:28.300Z,21.21
2023-05-29T15:55:13.735Z,20.99
2023-05-29T15:57:58.316Z,21.40
2023-05-29T16:00:43.152Z,21.95
2023-05-29T16:03:28.458Z,21.99
2023-05-29T16:06:13.307Z,22.18
2023-05-29T16:08:57.820Z,22.37
2023-05-29T16:11:42.925Z,23.02
2023-05-29T16:14:27.523Z,23.10
2023-05-29T16:17:12.431Z,22.63
2023-05-29T16:19:57.284Z,22.92
2023-05-29T16:22:43.128Z,23.32
2023-05-29T16:25:27.834Z,23.54
2023-05-29T16:28:12.899Z,24.00
2023-05-29T16:30:58.185Z,23.97
2023-05-29T16:33:43.240Z,24.26
2023-05-29T16:36:28.220Z,24.47
2023-05-29T16:39:15.165Z,24.49
2023-05-29T16:41:59.874Z,25.07
2023-05-29T16:44:44.717Z,25.13
2023-05-29T16:47:29.889Z,25.70
2023-05-29T16:50:14.839Z,26.34
2023-05-29T16:52:59.962Z,25.56
2023-05-29T16:55:45.226Z,25.88
2023-05-29T16:58:29.799Z,26.52
2023-05-29T17:01:15.313Z,27.22
2023-05-29T17:04:01.064Z,27.50
2023-05-29T17:06:46.091Z,28.45
2023-05-29T17:09:30.932Z,29.20
2023-05-29T17:12:15.701Z,29.78
2023-05-29T17:15:00.371Z,30.53
2023-05-29T17:17:45.423Z,31.04
2023-05-29T17:20:30.526Z,31.63
2023-05-29T17:23:15.306Z,32.76
2023-05-29T17:26:00.552Z,34.01
2023-05-29T17:28:45.291Z,35.36
2023-05-29T17:31:29.815Z,37.49
2023-05-29T17:34:14.811Z,39.32
2023-05-29T17:37:00.578Z,40.95
2023-05-29T17:39:45.773Z,43.11
2023-05-29T17:42:30.594Z,45.42
2023-05-29T17:45:15.905Z,46.45
2023-05-29T17:48:00.734Z,48.49
2023-05-29T17:50:46.104Z,51.72
2023-05-29T17:53:30.893Z,53.17
2023-05-29T17:56:15.878Z,55.19
2023-05-29T17:59:00.683Z,57.21
2023-05-29T18:01:45.614Z,60.35
2023-05-29T18:04:30.350Z,66.79
2023-05-29T18:07:17.494Z,73.08
2023-05-29T18:10:02.187Z,78.54
2023-05-29T18:12:47.769Z,83.11
2023-05-29T18:15:32.813Z,87.84
2023-05-29T18:18:19.318Z,92.67
2023-05-29T18:21:04.564Z,96.87
2023-05-29T18:23:51.005Z,100.00
2023-05-29T18:26:35.771Z,100.00
2023-05-29T18:29:20.507Z,100.00
2023-05-29T18:32:06.539Z,100.00
2023-05-29T18:34:51.092Z,100.00
2023-05-29T18:37:36.192Z,100.00
2023-05-29T18:40:21.218Z,100.00
2023-05-29T18:43:06.261Z,100.00
2023-05-29T18:45:51.177Z,100.00
2023-05-29T18:48:38.171Z,100.00
2023-05-29T18:51:23.021Z,100.00
2023-05-29T18:54:07.863Z,100.00
2023-05-29T18:56:52.680Z,100.00
2023-05-29T18:59:37.081Z,100.00
2023-05-29T19:02:22.361Z,100.00
2023-05-29T19:05:07.416Z,100.00
2023-05-29T19:07:54.449Z,100.00
2023-05-29T19:10:41.338Z,100.00
2023-05-29T19:13:25.909Z,100.00
2023-05-29T19:16:11.891Z,100.00
2023-05-29T19:18:59.823Z,100.00
2023-05-29T19:21:44.852Z,100.00
2023-05-29T19:24:29.485Z,100.00
2023-05-29T19:27:14.166Z,100.00
2023-05-29T19:29:59.346Z,100.00
2023-05-29T19:32:43.934Z,100.00
2023-05-29T19:35:28.826Z,100.00
2023-05-29T19:38:13.939Z,100.00
2023-05-29T19:40:58.977Z,100.00
2023-05-29T19:43:43.609Z,100.00
2023-05-29T19:46:28.838Z,100.00
2023-05-29T19:49:17.692Z,100.00
2023-05-29T19:52:03.277Z,100.00
2023-05-29T19:54:47.867Z,100.00
2023-05-29T19:57:33.779Z,100.00
2023-05-29T20:00:18.317Z,100.00
2023-05-29T20:03:03.457Z,100.00
2023-05-29T20:05:50.131Z,100.00
2023-05-29T20:08:35.745Z,100.00
2023-05-29T20:11:21.143Z,100.00
2023-05-29T20:14:05.780Z,100.00
2023-05-29T20:16:50.610Z,100.00
2023-05-29T20:19:35.338Z,100.00
2023-05-29T20:22:20.742Z,100.00
2023-05-29T20:25:05.955Z,100.00
2023-05-29T20:27:50.926Z,100.00
2023-05-29T20:30:36.282Z,100.00
2023-05-29T20:33:20.800Z,100.00
2023-05-29T20:36:07.560Z,100.00
2023-05-29T20:38:54.301Z,100.00
2023-05-29T20:41:39.693Z,100.00
2023-05-29T20:44:29.170Z,100.00
2023-05-29T20:47:14.338Z,100.00
2023-05-29T20:49:59.051Z,100.00
2023-05-29T20:52:44.281Z,100.00
2023-05-29T20:55:29.240Z,100.00
2023-05-29T20:58:14.709Z,100.00
2023-05-29T21:00:59.583Z,100.00
2023-05-29T21:03:46.079Z,100.00
2023-05-29T21:06:31.873Z,100.00
2023-05-29T21:09:16.519Z,100.00
2023-05-29T21:12:02.301Z,100.00
2023-05-29T21:14:47.001Z,100.00
2023-05-29T21:17:31.840Z,100.00
2023-05-29T21:20:16.708Z,100.00
2023-05-29T21:23:01.683Z,100.00
2023-05-29T21:25:47.203Z,100.00
2023-05-29T21:28:31.978Z,100.00
2023-05-29T21:31:17.868Z,100.00
2023-05-29T21:34:02.903Z,100.00
2023-05-29T21:36:48.507Z,100.00
2023-05-29T21:39:34.232Z,100.00
2023-05-29T21:42:19.001Z,100.00
2023-05-29T21:45:04.411Z,100.00
2023-05-29T21:47:49.605Z,100.00
2023-05-29T21:50:34.390Z,100.00
2023-05-29T21:53:21.040Z,100.00
2023-05-29T21:56:06.416Z,100.00
2023-05-29T21:58:51.044Z,100.00
2023-05-29T22:01:36.128Z,100.00
2023-05-29T22:04:21.160Z,100.00
2023-05-29T22:07:06.303Z,100.00
2023-05-29T22:09:51.151Z,100.00
2023-05-29T22:12:37.417Z,100.00
2023-05-29T22:15:22.604Z,100.00
2023-05-29T22:18:07.701Z,100.00
2023-05-29T22:20:52.427Z,100.00
2023-05-29T22:23:37.232Z,100.00
2023-05-29T22:26:22.900Z,100.00
2023-05-29T22:29:08.317Z,100.00
2023-05-29T22:31:53.850Z,100.00
2023-05-29T22:34:38.760Z,100.00
2023-05-29T22:37:24.392Z,100.00
2023-05-29T22:40:15.087Z,100.00
2023-05-29T22:43:00.259Z,100.00
2023-05-29T22:45:45.384Z,100.00
2023-05-29T22:48:29.959Z,100.00
2023-05-29T22:51:15.759Z,100.00
2023-05-29T22:54:00.542Z,100.00
2023-05-29T22:56:45.406Z,100.00
2023-05-29T22:59:30.214Z,100.00
2023-05-29T23:02:15.128Z,100.00
2023-05-29T23:05:00.271Z,100.00
2023-05-29T23:07:45.293Z,100.00
2023-05-29T23:10:32.465Z,100.00
2023-05-29T23:13:17.103Z,100.00
2023-05-29T23:16:01.596Z,100.00
2023-05-29T23:18:46.769Z,100.00
2023-05-29T23:21:32.121Z,100.00
2023-05-29T23:24:16.807Z,100.00
2023-05-29T23:27:01.525Z,100.00
2023-05-29T23:29:46.102Z,100.00
2023-05-29T23:32:30.725Z,100.00
2023-05-29T23:35:15.847Z,100.00
2023-05-29T23:38:02.413Z,100.00
2023-05-29T23:40:47.389Z,100.00
2023-05-29T23:43:32.237Z,100.00
2023-05-29T23:46:17.808Z,100.00
2023-05-29T23:49:03.784Z,100.00
2023-05-29T23:51:49.095Z,100.00
2023-05-29T23:54:33.758Z,100.00
2023-05-29T23:57:18.972Z,100.00
